Blackstone, VA (23824)

3:38 PM EST on February 14, 2016 (GMT -0500)
Downtown Blackstone | | Change Station
CLOSE
Current Station
Personal Weather Station
Location: Blackstone, VA
Elevation: 440 ft
Nearby Weather Stations
Active Advisory: Winter Weather Advisory

Elev 440 ft 37.08 °N, 78.00 °W | Updated 9 seconds ago

Clear
Clear
29.7 °F
Feels Like 24 °F
N
4.9
Wind Variable Wind from East
Gusts 7.4 mph

Today
High -- | Low -- °F
--% Chance of Precip.
Yesterday
High -- | Low -- °F
Precip. -- in
Pressure 30.51 in
Visibility 10.0 miles
Clouds Clear
Windchill 24 °F
Dew Point -6 °F
Humidity 20%
Rainfall 0.00 in
Snow Depth Not available.
7:02 AM 5:50 PM
Waxing Crescent, 45% visible
METAR KAVC 142016Z AUTO 00000KT 10SM CLR M02/M19 A3051 RMK AO2 T10191192
Pressure 30.51 in
Visibility 10.0 miles
Clouds Clear
Windchill 24 °F
Dew Point -6 °F
Humidity 20%
Rainfall 0.00 in
Snow Depth Not available.
7:02 AM 5:50 PM
Waxing Crescent, 45% visible
METAR KAVC 142016Z AUTO 00000KT 10SM CLR M02/M19 A3051 RMK AO2 T10191192

10-Day Weather Forecast

Almanac

Astronomy

Feb. 14, 2016 Rise Set
Actual Time
Civil Twilight
Nautical Twilight
Astronomical Twilight
Moon
Length of Visible Light
Length of Day
Tomorrow will be .
, % of the Moon is Illuminated

Today's Extremes

State Highs State Lows

Community

WunderPhotos

Upload Photos

1,892,886 photos uploaded!

WunderBlog® & News

Nearby

Air Quality

  Air Quality AQ Index Pollutant
Not available.

Snow Depth

Station Depth Elevation

Earthquake Activity

City Distance Mag. Time & Date
Minimum magnitude displayed is 2.5.

Coastal Water Temperatures

Place Temperature

Stations

Nearby Weather Stations

Station Location Temp. Windchill Dew Point Humidity Wind Precip. Elev Updated Type
                   

Watches & Warnings

Winter Weather Advisory
Issued: 2:51 PM EST Feb. 14, 2016 – National Weather Service

... Winter Weather Advisory remains in effect from midnight
tonight to 7 PM EST Monday...

* areas affected: central and south central Virginia.

* Hazards: snow... sleet and freezing rain.

* Accumulations: one to four inches of snow... and up to one tenth
of an inch of ice.

* Temperatures: lows tonight around 20. Highs late Monday in the
lower to mid 30s.

* Timing: snow overspreading the area around midnight tonight... then
continuing through the morning hours Monday. The snow is
expected to change to sleet and freezing rain late Monday
morning or early afternoon... then eventually rain through Monday
afternoon and Monday evening.

* Impacts: hazardous travel due to snow and ice covered roads.

Precautionary/preparedness actions...

A Winter Weather Advisory means that periods of snow... sleet... or
freezing rain will cause travel difficulties. Be prepared for
slippery roads and limited visibilities... and use caution while
driving.